Time;durP1;ratioP1;P1;durP2;ratioP2;P2;SDS_P1;SDS_P2;PMS_P1;PMS_P2;Temp;Humidity;BMP_temperature;BMP_pressure;BME280_temperature;BME280_humidity;BME280_pressure;Samples;Min_cycle;Max_cycle;Signal;HPM_P1;HPM_P2
2022/07/29 00:00:45;;;;;;;;;;;;;;;15.74;100.00;146694.22;5092150;28;19923;-80
2022/07/29 00:03:16;;;;;;;;;;;;;;;15.71;100.00;146686.56;5090247;28;20400;-80
2022/07/29 00:05:42;;;;;;;;;;;;;;;15.66;100.00;146673.81;5073555;28;19995;-79
2022/07/29 00:08:07;;;;;;;;;;;;;;;15.65;100.00;146671.22;5072567;28;19959;-79
2022/07/29 00:10:33;;;;;;;;;;;;;;;15.68;100.00;146677.63;5073781;28;19923;-78
2022/07/29 00:12:59;;;;;;;;;;;;;;;15.61;100.00;146661.00;5072954;28;20323;-79
2022/07/29 00:15:25;;;;;;;;;;;;;;;15.61;100.00;146662.31;5089340;28;19919;-79
2022/07/29 00:17:50;;;;;;;;;;;;;;;15.60;100.00;146658.47;5093515;28;19938;-78
2022/07/29 00:20:15;;;;;;;;;;;;;;;15.60;100.00;146659.75;5078751;28;19920;-79
2022/07/29 00:22:42;;;;;;;;;;;;;;;15.64;100.00;144674.81;5072741;28;19927;-79
2022/07/29 00:25:07;;;;;;;;;;;;;;;15.60;100.00;145534.06;5090817;28;19916;-78
2022/07/29 00:27:33;;;;;;;;;;;;;;;15.54;100.00;134984.03;5073077;28;19924;-79
2022/07/29 00:29:58;;;;;;;;;;;;;;;15.52;100.00;132582.28;5106053;28;19921;-80
2022/07/29 00:32:26;;;;;;;;;;;;;;;15.49;100.00;127442.59;5073169;28;20217;-79
2022/07/29 00:37:37;;;;;;;;;;;;;;;15.47;100.00;116853.56;5074162;28;19969;-79
2022/07/29 00:40:03;;;;;;;;;;;;;;;15.39;100.00;115133.78;5106564;28;19959;-79
2022/07/29 00:42:48;;;;;;;;;;;;;;;15.36;100.00;109339.25;5072716;28;19960;-79
2022/07/29 00:45:15;;;;;;;;;;;;;;;15.37;100.00;105939.41;5105992;28;19920;-79
2022/07/29 00:47:40;;;;;;;;;;;;;;;15.37;100.00;100841.22;5082140;28;19916;-80
2022/07/29 00:50:06;;;;;;;;;;;;;;;15.36;100.00;99820.75;5092578;28;20057;-78
2022/07/29 00:52:38;;;;;;;;;;;;;;;15.37;100.00;94394.69;5077375;28;19927;-79
2022/07/29 00:55:04;;;;;;;;;;;;;;;15.33;100.00;90998.91;5072488;28;19917;-80
2022/07/29 00:57:30;;;;;;;;;;;;;;;15.28;100.00;89636.13;5085901;28;19927;-79
2022/07/29 00:59:55;;;;;;;;;;;;;;;15.28;100.00;84559.28;5093748;28;20264;-79
2022/07/29 01:02:23;;;;;;;;;;;;;;;15.25;100.00;78811.31;5074603;28;20003;-79
2022/07/29 01:04:48;;;;;;;;;;;;;;;15.24;100.00;74759.00;5072845;28;19916;-79
2022/07/29 01:07:14;;;;;;;;;;;;;;;15.22;100.00;72059.19;5072293;28;19935;-80
2022/07/29 01:09:40;;;;;;;;;;;;;;;15.16;100.00;70703.28;5093761;28;20476;-83
2022/07/29 01:12:06;;;;;;;;;;;;;;;15.19;100.00;69696.31;5092063;28;19916;-81
2022/07/29 01:14:35;;;;;;;;;;;;;;;15.06;100.00;68670.13;5092229;28;19959;-81
2022/07/29 01:17:10;;;;;;;;;;;;;;;15.10;100.00;63962.09;5092537;28;20486;-82
2022/07/29 01:19:55;;;;;;;;;;;;;;;15.05;100.00;61603.19;5092804;28;20002;-82
2022/07/29 01:22:26;;;;;;;;;;;;;;;15.03;100.00;59249.31;5052619;28;20420;-80
2022/07/29 01:24:51;;;;;;;;;;;;;;;15.04;100.00;58242.19;5053547;28;20353;-81
2022/07/29 01:27:19;;;;;;;;;;;;;;;14.98;100.00;55885.75;5107466;28;19917;-82
2022/07/29 01:29:47;;;;;;;;;;;;;;;14.98;100.00;51525.69;5110278;28;19960;-81
2022/07/29 01:32:19;;;;;;;;;;;;;;;14.96;100.00;47837.44;5073761;28;19920;-81
2022/07/29 01:34:57;;;;;;;;;;;;;;;14.97;100.00;44156.31;5110526;28;19920;-81
2022/07/29 01:37:41;;;;;;;;;;;;;;;14.92;100.00;43148.03;5076586;28;19923;-82
2022/07/29 01:40:11;;;;;;;;;;;;;;;14.97;100.00;40477.25;5109857;28;19923;-82
2022/07/29 01:42:41;;;;;;;;;;;;;;;15.02;100.00;39812.19;5078534;28;20015;-81
2022/07/29 01:45:10;;;;;;;;;;;;;;;14.97;100.00;39140.28;5096079;28;19927;-81
2022/07/29 01:47:53;;;;;;;;;;;;;;;14.96;100.00;37802.63;5096573;28;19927;-80
2022/07/29 01:50:21;;;;;;;;;;;;;;;14.90;100.00;36462.66;5086571;28;19924;-80
2022/07/29 01:52:54;;;;;;;;;;;;;;;14.94;100.00;35129.63;5072822;28;19940;-81
2022/07/29 01:55:21;;;;;;;;;;;;;;;14.97;100.00;32795.81;5073558;28;19924;-80
2022/07/29 01:57:47;;;;;;;;;;;;;;;14.95;100.00;32126.97;5086714;28;19916;-81
2022/07/29 02:00:13;;;;;;;;;;;;;;;14.97;100.00;32128.25;5077361;28;19927;-80
2022/07/29 02:02:43;;;;;;;;;;;;;;;14.94;100.00;31126.03;5075635;28;19920;-79
2022/07/29 02:05:10;;;;;;;;;;;;;;;14.87;100.00;31788.91;5085722;28;19920;-78
2022/07/29 02:07:36;;;;;;;;;;;;;;;14.91;100.00;29790.47;5085712;28;19916;-79
2022/07/29 02:10:03;;;;;;;;;;;;;;;14.83;100.00;29785.91;5075377;28;19923;-79
2022/07/29 02:12:31;;;;;;;;;;;;;;;14.80;100.00;28450.81;5075096;28;20003;-78
2022/07/29 02:14:59;;;;;;;;;;;;;;;14.83;100.00;26786.91;5075020;28;19916;-79
2022/07/29 02:17:29;;;;;;;;;;;;;;;14.76;100.00;26783.25;5075550;28;20011;-79
2022/07/29 02:19:56;;;;;;;;;;;;;;;14.79;100.00;26118.91;5074955;28;19928;-79
2022/07/29 02:22:22;;;;;;;;;;;;;;;14.85;100.00;23458.72;5074901;28;19917;-80
2022/07/29 02:24:49;;;;;;;;;;;;;;;14.85;100.00;22460.47;5074560;28;20288;-79
2022/07/29 02:27:17;;;;;;;;;;;;;;;14.78;100.00;22789.75;5074824;28;20369;-78
2022/07/29 02:29:42;;;;;;;;;;;;;;;14.74;100.00;21790.09;5055086;28;19921;-79
2022/07/29 02:32:10;;;;;;;;;;;;;;;14.74;100.00;21457.31;5055019;28;20011;-79
2022/07/29 02:34:38;;;;;;;;;;;;;;;14.71;100.00;20791.09;5075101;28;19920;-80
2022/07/29 02:37:04;;;;;;;;;;;;;;;14.80;100.00;20130.00;5078617;28;19923;-80
2022/07/29 02:39:29;;;;;;;;;;;;;;;14.76;100.00;20460.91;5091467;28;19916;-78
2022/07/29 02:41:57;;;;;;;;;;;;;;;14.74;100.00;19462.69;5095613;28;20379;-80
2022/07/29 02:44:25;;;;;;;;;;;;;;;14.72;100.00;18797.31;5094890;28;20123;-79
2022/07/29 02:46:53;;;;;;;;;;;;;;;14.72;100.00;18465.00;5094428;28;20398;-79
2022/07/29 02:49:28;;;;;;;;;;;;;;;14.74;100.00;17468.66;5074159;28;19960;-79
2022/07/29 02:52:15;;;;;;;;;;;;;;;14.65;100.00;18462.03;5108008;28;19964;-80
2022/07/29 02:54:44;;;;;;;;;;;;;;;14.68;100.00;17466.63;5094392;28;19983;-83
2022/07/29 02:57:14;;;;;;;;;;;;;;;14.59;100.00;16466.66;5095104;28;19916;-82
2022/07/29 02:59:42;;;;;;;;;;;;;;;14.61;100.00;15139.38;5095144;28;19918;-82
2022/07/29 03:02:08;;;;;;;;;;;;;;;14.63;100.00;13812.50;5079410;28;19926;-82
2022/07/29 03:04:44;;;;;;;;;;;;;;;14.55;100.00;12814.59;5080340;28;19920;-82
2022/07/29 03:07:10;;;;;;;;;;;;;;;14.54;100.00;11487.59;5094847;28;19916;-81
2022/07/29 03:09:36;;;;;;;;;;;;;;;14.55;100.00;11156.16;5094679;28;19912;-83
2022/07/29 03:12:03;;;;;;;;;;;;;;;14.52;100.00;10823.84;5095788;28;20277;-81
2022/07/29 03:14:30;;;;;;;;;;;;;;;14.50;100.00;9497.38;5093398;28;19923;-79
2022/07/29 03:16:55;;;;;;;;;;;;;;;14.48;100.00;9496.81;5092813;28;19923;-79
2022/07/29 03:19:21;;;;;;;;;;;;;;;14.44;100.00;7507.94;5094773;28;19942;-79
2022/07/29 03:21:55;;;;;;;;;;;;;;;14.43;100.00;5189.84;5094890;28;19919;-82
2022/07/29 03:24:38;;;;;;;;;;;;;;;14.39;100.00;4527.09;5094111;28;19924;-82
2022/07/29 03:27:05;;;;;;;;;;;;;;;14.39;100.00;2872.91;5094733;28;20006;-80
2022/07/29 03:29:30;;;;;;;;;;;;;;;14.33;100.00;2210.44;5077649;28;19928;-79
2022/07/29 03:31:55;;;;;;;;;;;;;;;14.31;100.00;1548.88;5093956;28;19927;-80
2022/07/29 03:34:24;;;;;;;;;;;;;;;14.36;100.00;557.69;5094514;28;19917;-80
2022/07/29 03:36:49;;;;;;;;;;;;;;;14.39;100.00;-1094.50;5090901;28;19967;-79
2022/07/29 03:39:17;;;;;;;;;;;;;;;14.29;100.00;-1756.28;5074002;28;19952;-80
2022/07/29 03:41:43;;;;;;;;;;;;;;;14.28;100.00;-2416.94;5084269;28;19931;-81
2022/07/29 03:44:14;;;;;;;;;;;;;;;14.29;100.00;-3077.41;5093654;28;20037;-82
2022/07/29 03:46:41;;;;;;;;;;;;;;;14.24;100.00;-3738.06;5093816;28;19916;-80
2022/07/29 03:49:08;;;;;;;;;;;;;;;14.28;100.00;-4398.09;5079610;28;19923;-80
2022/07/29 03:51:33;;;;;;;;;;;;;;;14.33;100.00;-5058.06;5073748;28;19995;-83
2022/07/29 03:54:01;;;;;;;;;;;;;;;14.29;100.00;-6048.25;5074718;28;19945;-82
2022/07/29 03:56:27;;;;;;;;;;;;;;;14.27;100.00;-7038.03;5073857;28;19919;-82
2022/07/29 03:58:53;;;;;;;;;;;;;;;14.26;100.00;-7367.91;5073926;28;20280;-81
2022/07/29 04:01:18;;;;;;;;;;;;;;;14.24;100.00;-7367.91;5075037;28;19916;-83
2022/07/29 04:03:51;;;;;;;;;;;;;;;14.27;100.00;-7038.06;5074594;28;19920;-82
2022/07/29 04:06:16;;;;;;;;;;;;;;;14.22;100.00;-7038.09;5073938;28;19924;-82
2022/07/29 04:08:41;;;;;;;;;;;;;;;14.21;100.00;-7367.91;5073874;28;19920;-83
2022/07/29 04:11:07;;;;;;;;;;;;;;;14.23;100.00;-7367.91;5073470;28;20431;-83
2022/07/29 04:13:34;;;;;;;;;;;;;;;14.23;100.00;-7697.72;5073687;28;19912;-82
2022/07/29 04:15:59;;;;;;;;;;;;;;;14.22;100.00;-7697.72;5093828;28;19995;-81
2022/07/29 04:18:24;;;;;;;;;;;;;;;14.25;100.00;-7367.91;5093522;28;19962;-81
2022/07/29 04:20:50;;;;;;;;;;;;;;;14.23;100.00;-8687.00;5094108;28;19916;-81
2022/07/29 04:23:15;;;;;;;;;;;;;;;14.28;100.00;-8687.06;5086652;28;19916;-81
2022/07/29 04:25:41;;;;;;;;;;;;;;;14.24;100.00;-8027.53;5074449;28;19921;-81
2022/07/29 04:28:07;;;;;;;;;;;;;;;14.28;100.00;-8027.56;5071567;28;20039;-79
2022/07/29 04:30:33;;;;;;;;;;;;;;;14.23;100.00;-7367.91;5072968;28;19931;-80
2022/07/29 04:33:01;;;;;;;;;;;;;;;14.24;100.00;-8027.53;5081421;28;20010;-79
2022/07/29 04:35:27;;;;;;;;;;;;;;;14.22;100.00;-7367.91;5080495;28;19920;-78
2022/07/29 04:37:54;;;;;;;;;;;;;;;14.11;100.00;-7697.69;5072215;28;20444;-78
2022/07/29 04:40:19;;;;;;;;;;;;;;;14.11;100.00;-7367.94;5073740;28;20396;-79
2022/07/29 04:42:45;;;;;;;;;;;;;;;14.16;100.00;-7367.94;5071879;28;20023;-80
2022/07/29 04:45:10;;;;;;;;;;;;;;;14.15;100.00;-8357.16;5094377;28;20014;-79
2022/07/29 04:47:36;;;;;;;;;;;;;;;14.21;100.00;-9346.28;5059526;28;19916;-82
2022/07/29 04:50:02;;;;;;;;;;;;;;;14.21;100.00;-9346.28;5082446;28;19920;-83
2022/07/29 04:52:29;;;;;;;;;;;;;;;14.15;100.00;-9016.50;5093676;28;20425;-83
2022/07/29 04:54:54;;;;;;;;;;;;;;;14.18;100.00;-8357.19;5090380;28;19924;-82
2022/07/29 04:57:19;;;;;;;;;;;;;;;14.19;100.00;-7697.72;5072802;28;19920;-83
2022/07/29 04:59:44;;;;;;;;;;;;;;;14.28;100.00;-7697.75;5073264;28;19946;-80
2022/07/29 05:02:10;;;;;;;;;;;;;;;14.33;100.00;-6048.16;5077557;28;20376;-79
2022/07/29 05:04:43;;;;;;;;;;;;;;;14.39;100.00;-4397.56;5085254;28;19916;-79
2022/07/29 05:07:08;;;;;;;;;;;;;;;14.38;100.00;-3076.78;5070764;28;19968;-80
2022/07/29 05:09:34;;;;;;;;;;;;;;;14.40;100.00;-1424.84;5071893;28;19962;-79
2022/07/29 05:12:00;;;;;;;;;;;;;;;14.40;100.00;-433.44;5073170;28;19917;-80
2022/07/29 05:14:39;;;;;;;;;;;;;;;14.46;100.00;559.00;5073351;28;19927;-79
2022/07/29 05:17:05;;;;;;;;;;;;;;;14.50;100.00;1220.81;5079075;28;19923;-79
2022/07/29 05:19:30;;;;;;;;;;;;;;;14.54;100.00;-101.22;5056506;28;19921;-79
2022/07/29 05:21:57;;;;;;;;;;;;;;;14.68;100.00;-99.66;5072169;28;19962;-77
2022/07/29 05:24:23;;;;;;;;;;;;;;;14.70;100.00;1223.66;5071802;28;19932;-79
2022/07/29 05:26:48;;;;;;;;;;;;;;;14.88;100.00;1887.94;5072619;28;19924;-78
2022/07/29 05:29:14;;;;;;;;;;;;;;;14.97;100.00;4869.53;5071781;28;19929;-78
2022/07/29 05:31:39;;;;;;;;;;;;;;;15.29;100.00;7859.81;5079084;28;19931;-81
2022/07/29 05:34:09;;;;;;;;;;;;;;;15.63;100.00;12517.00;5090371;28;19924;-79
2022/07/29 05:36:34;;;;;;;;;;;;;;;15.94;100.00;18848.06;5091923;28;20388;-78
2022/07/29 05:39:00;;;;;;;;;;;;;;;16.47;100.00;26876.41;5053709;28;19917;-78
2022/07/29 05:41:35;;;;;;;;;;;;;;;17.31;100.00;41327.38;5087842;28;19955;-79
2022/07/29 05:44:02;;;;;;;;;;;;;;;17.28;100.00;74688.50;5071497;28;19916;-79
2022/07/29 05:46:27;;;;;;;;;;;;;;;17.61;100.00;118307.72;5073455;28;20003;-79
2022/07/29 05:48:53;;;;;;;;;;;;;;;17.46;100.00;147119.75;5071745;28;19931;-79
2022/07/29 05:51:18;;;;;;;;;;;;;;;17.05;100.00;147018.78;5071423;28;20273;-80
2022/07/29 05:53:44;;;;;;;;;;;;;;;17.19;100.00;147054.56;5072757;28;19916;-79
2022/07/29 05:56:11;;;;;;;;;;;;;;;17.47;100.00;147123.59;5070292;28;19916;-80
2022/07/29 05:58:36;;;;;;;;;;;;;;;18.32;100.00;147334.66;5086737;28;19924;-79
2022/07/29 06:01:02;;;;;;;;;;;;;;;19.47;100.00;147620.09;5072749;28;19916;-80
2022/07/29 06:03:27;;;;;;;;;;;;;;;19.77;100.00;147694.41;5084161;28;20097;-81
2022/07/29 06:05:53;;;;;;;;;;;;;;;19.72;100.00;147682.84;5089511;28;19916;-81
2022/07/29 06:08:18;;;;;;;;;;;;;;;19.10;100.00;147529.19;5079075;28;20020;-79
2022/07/29 06:10:43;;;;;;;;;;;;;;;18.30;100.00;147329.53;5072864;28;20034;-78
2022/07/29 06:13:11;;;;;;;;;;;;;;;17.76;100.00;147195.22;5075588;28;20012;-78
2022/07/29 06:15:36;;;;;;;;;;;;;;;17.23;100.00;147064.81;5076120;28;20413;-78
2022/07/29 06:18:02;;;;;;;;;;;;;;;17.27;100.00;147072.47;5076394;28;19916;-79
2022/07/29 06:20:32;;;;;;;;;;;;;;;16.85;100.00;146970.16;5083158;28;19981;-78
2022/07/29 06:22:57;;;;;;;;;;;;;;;16.88;100.00;146975.34;5094194;28;19930;-77
2022/07/29 06:25:22;;;;;;;;;;;;;;;17.08;100.00;147026.44;5094079;28;19920;-78
2022/07/29 06:27:48;;;;;;;;;;;;;;;17.06;100.00;147021.34;5093834;28;20073;-79
2022/07/29 06:30:13;;;;;;;;;;;;;;;17.40;100.00;147105.69;5084419;28;20360;-78
2022/07/29 06:32:49;;;;;;;;;;;;;;;16.96;100.00;146997.03;5108507;28;19991;-77
2022/07/29 06:35:14;;;;;;;;;;;;;;;17.15;100.00;147043.06;5074296;28;20524;-79
2022/07/29 06:37:39;;;;;;;;;;;;;;;17.40;100.00;147105.69;5075193;28;20008;-79
2022/07/29 06:42:49;;;;;;;;;;;;;;;17.56;100.00;147145.34;5075339;28;20011;-80
2022/07/29 06:45:14;;;;;;;;;;;;;;;17.32;100.00;147086.50;5074338;28;20015;-78
2022/07/29 06:47:40;;;;;;;;;;;;;;;17.16;100.00;147046.88;5074406;28;19965;-80
2022/07/29 06:50:05;;;;;;;;;;;;;;;17.14;100.00;147041.78;5075611;28;19947;-79
2022/07/29 06:52:31;;;;;;;;;;;;;;;17.06;100.00;147021.34;5076276;28;19923;-78
2022/07/29 06:54:56;;;;;;;;;;;;;;;16.83;100.00;146965.06;5071894;28;19917;-78
2022/07/29 06:57:27;;;;;;;;;;;;;;;16.91;100.00;146984.28;5073356;28;20007;-78
2022/07/29 06:59:55;;;;;;;;;;;;;;;17.07;100.00;147023.88;5075133;28;19916;-78
2022/07/29 07:02:22;;;;;;;;;;;;;;;17.34;100.00;147090.34;5073987;28;19940;-78
2022/07/29 07:04:47;;;;;;;;;;;;;;;17.72;100.00;147184.97;5074064;28;19918;-77
2022/07/29 07:07:12;;;;;;;;;;;;;;;17.98;100.00;147250.25;5072732;28;19931;-77
2022/07/29 07:09:38;;;;;;;;;;;;;;;18.48;100.00;147374.31;5076751;28;20291;-75
2022/07/29 07:12:03;;;;;;;;;;;;;;;18.66;100.00;147419.13;5093283;28;19963;-78
2022/07/29 07:14:30;;;;;;;;;;;;;;;19.15;100.00;147541.97;5075100;28;19921;-78
2022/07/29 07:16:55;;;;;;;;;;;;;;;19.06;100.00;147517.69;5091141;28;19916;-76
2022/07/29 07:19:21;;;;;;;;;;;;;;;19.73;100.00;147685.38;5091324;28;19916;-78
2022/07/29 07:21:46;;;;;;;;;;;;;;;19.83;100.00;147709.78;5080985;28;19913;-78
2022/07/29 07:24:17;;;;;;;;;;;;;;;19.59;100.00;147649.53;5077080;28;19917;-78
2022/07/29 07:26:42;;;;;;;;;;;;;;;19.72;100.00;147682.84;5075402;28;19916;-78
2022/07/29 07:29:08;;;;;;;;;;;;;;;20.34;100.00;147837.84;5107403;28;19931;-78
2022/07/29 07:31:33;;;;;;;;;;;;;;;21.02;100.00;148007.06;5072834;28;20377;-80
2022/07/29 07:34:00;;;;;;;;;;;;;;;21.87;100.00;148219.88;5072976;28;19956;-79
2022/07/29 07:36:25;;;;;;;;;;;;;;;21.77;100.00;148194.25;5084826;28;19920;-77
2022/07/29 07:38:51;;;;;;;;;;;;;;;21.34;100.00;148087.75;5091502;28;20257;-79
2022/07/29 07:41:16;;;;;;;;;;;;;;;21.35;100.00;148089.06;5093517;28;19931;-79
2022/07/29 07:43:43;;;;;;;;;;;;;;;21.88;100.00;148221.19;5085068;28;19935;-79
2022/07/29 07:46:09;;;;;;;;;;;;;;;21.65;100.00;148163.47;5072758;28;19951;-78
2022/07/29 07:48:34;;;;;;;;;;;;;;;20.85;100.00;147964.75;5101101;28;19924;-78
2022/07/29 07:51:00;;;;;;;;;;;;;;;21.68;100.00;148171.16;5076462;28;19924;-76
2022/07/29 07:53:25;;;;;;;;;;;;;;;21.98;100.00;148246.81;5089530;28;19973;-78
2022/07/29 07:55:50;;;;;;;;;;;;;;;22.28;100.00;148319.91;5066110;28;20388;-78
2022/07/29 07:58:15;;;;;;;;;;;;;;;22.17;100.00;148294.28;5072115;28;19966;-78
2022/07/29 08:00:41;;;;;;;;;;;;;;;20.97;100.00;147994.19;5056413;28;19966;-79
2022/07/29 08:03:06;;;;;;;;;;;;;;;20.69;100.00;147925.00;5066844;28;19928;-77
2022/07/29 08:05:33;;;;;;;;;;;;;;;20.77;100.00;147944.22;5076383;28;19946;-78
2022/07/29 08:07:59;;;;;;;;;;;;;;;21.32;100.00;148082.66;5104526;28;20352;-78
2022/07/29 08:13:23;;;;;;;;;;;;;;;21.67;100.00;148168.59;5068137;28;19921;-77
2022/07/29 08:15:57;;;;;;;;;;;;;;;22.68;100.00;148420.03;5072455;28;20283;-78
2022/07/29 08:18:22;;;;;;;;;;;;;;;22.73;100.00;148432.84;5105424;28;19924;-78
2022/07/29 08:20:47;;;;;;;;;;;;;;;23.16;100.00;148539.44;5071760;28;20056;-81
2022/07/29 08:23:18;;;;;;;;;;;;;;;23.40;100.00;148601.06;5088633;28;19959;-77
2022/07/29 08:25:44;;;;;;;;;;;;;;;23.65;100.00;148663.94;5073077;28;19917;-77
2022/07/29 08:28:10;;;;;;;;;;;;;;;23.75;100.00;148687.06;5105599;28;19924;-78
2022/07/29 08:30:35;;;;;;;;;;;;;;;23.97;100.00;148742.31;5105858;28;19920;-79
2022/07/29 08:33:00;;;;;;;;;;;;;;;23.41;100.00;148603.59;5104525;28;19916;-78
2022/07/29 08:35:26;;;;;;;;;;;;;;;23.28;100.00;148571.50;5105735;28;19999;-77
2022/07/29 08:37:51;;;;;;;;;;;;;;;23.91;100.00;148728.22;5106124;28;19960;-82
2022/07/29 08:40:17;;;;;;;;;;;;;;;23.54;100.00;148635.72;5106055;28;19917;-80
2022/07/29 08:42:49;;;;;;;;;;;;;;;22.19;100.00;148298.13;5105516;28;19916;-79
2022/07/29 08:45:15;;;;;;;;;;;;;;;23.28;100.00;148570.25;5105399;28;19928;-79
2022/07/29 08:47:40;;;;;;;;;;;;;;;23.67;100.00;148667.81;5072869;28;19970;-82
2022/07/29 08:50:07;;;;;;;;;;;;;;;23.43;100.00;148607.44;5105687;28;19920;-80
2022/07/29 08:52:35;;;;;;;;;;;;;;;23.56;100.00;148640.84;5073091;28;20011;-80
2022/07/29 08:55:01;;;;;;;;;;;;;;;23.44;100.00;148611.28;5102212;28;19924;-79
2022/07/29 08:57:27;;;;;;;;;;;;;;;24.11;100.00;148777.00;5104980;28;20276;-78
2022/07/29 08:59:54;;;;;;;;;;;;;;;24.59;100.00;148896.50;5088230;28;19974;-79
2022/07/29 09:02:22;;;;;;;;;;;;;;;23.67;100.00;148669.06;5105077;28;20391;-82
2022/07/29 09:04:48;;;;;;;;;;;;;;;23.75;100.00;148688.34;5105574;28;19977;-80
2022/07/29 09:07:17;;;;;;;;;;;;;;;24.33;100.00;148833.53;5105414;28;19927;-80
2022/07/29 09:09:42;;;;;;;;;;;;;;;25.07;100.00;149018.53;5105700;28;19917;-79
2022/07/29 09:12:08;;;;;;;;;;;;;;;24.54;100.00;148884.88;5072722;28;19925;-80
2022/07/29 09:14:34;;;;;;;;;;;;;;;23.27;100.00;148568.97;5071847;28;19952;-80
2022/07/29 09:17:00;;;;;;;;;;;;;;;23.79;100.00;148697.34;5105574;28;20279;-77
2022/07/29 09:19:44;;;;;;;;;;;;;;;23.70;100.00;148675.50;5073802;28;19921;-78
2022/07/29 09:22:09;;;;;;;;;;;;;;;23.92;100.00;148729.47;5069499;28;19916;-79
2022/07/29 09:24:46;;;;;;;;;;;;;;;23.85;100.00;148712.81;5104102;28;20119;-78
2022/07/29 09:27:12;;;;;;;;;;;;;;;24.27;100.00;148816.78;5071276;28;20030;-78
2022/07/29 09:29:38;;;;;;;;;;;;;;;24.62;100.00;148905.47;5072659;28;19917;-78
2022/07/29 09:32:05;;;;;;;;;;;;;;;24.42;100.00;148854.06;5072141;28;19927;-79
2022/07/29 09:34:34;;;;;;;;;;;;;;;24.35;100.00;148838.63;5105148;28;19924;-79
2022/07/29 09:36:59;;;;;;;;;;;;;;;24.74;100.00;148935.03;5103992;28;19912;-77
2022/07/29 09:39:28;;;;;;;;;;;;;;;24.20;100.00;148800.09;5072173;28;19989;-78
2022/07/29 09:41:55;;;;;;;;;;;;;;;24.12;100.00;148779.56;5104590;28;19964;-77
2022/07/29 09:44:21;;;;;;;;;;;;;;;24.51;100.00;148877.19;5104634;28;19960;-76
2022/07/29 09:47:09;;;;;;;;;;;;;;;24.98;100.00;148995.41;5108010;28;19916;-76
2022/07/29 09:49:35;;;;;;;;;;;;;;;24.24;100.00;148810.41;5108624;28;19920;-75
2022/07/29 09:52:04;;;;;;;;;;;;;;;24.10;100.00;148774.41;5076151;28;20335;-76
2022/07/29 09:54:34;;;;;;;;;;;;;;;24.07;100.00;148766.75;5102807;28;19913;-77
2022/07/29 09:56:59;;;;;;;;;;;;;;;23.73;100.00;148683.22;5108739;28;19916;-77
2022/07/29 09:59:26;;;;;;;;;;;;;;;23.11;100.00;148529.16;5109004;28;19936;-80
2022/07/29 10:01:51;;;;;;;;;;;;;;;22.30;100.00;148325.06;5109254;28;20017;-79
2022/07/29 10:04:19;;;;;;;;;;;;;;;22.61;100.00;148402.06;5108548;28;19920;-78
2022/07/29 10:07:04;;;;;;;;;;;;;;;23.15;100.00;148538.16;5108935;28;20524;-77
2022/07/29 10:09:30;;;;;;;;;;;;;;;23.22;100.00;148556.09;5109433;28;20356;-77
2022/07/29 10:12:22;;;;;;;;;;;;;;;23.19;100.00;148548.41;5108874;28;19936;-78
2022/07/29 10:14:47;;;;;;;;;;;;;;;22.72;100.00;148431.59;5073562;28;20262;-78
2022/07/29 10:17:13;;;;;;;;;;;;;;;22.85;100.00;148463.66;5108206;28;20046;-78
2022/07/29 10:19:38;;;;;;;;;;;;;;;22.91;100.00;148477.78;5108830;28;19998;-77
2022/07/29 10:22:07;;;;;;;;;;;;;;;22.95;100.00;148489.34;5108850;28;20368;-77
2022/07/29 10:24:39;;;;;;;;;;;;;;;23.59;100.00;148647.28;5108793;28;19916;-77
2022/07/29 10:27:05;;;;;;;;;;;;;;;23.19;100.00;148548.41;5076131;28;19916;-78
2022/07/29 10:29:31;;;;;;;;;;;;;;;23.18;100.00;148545.88;5108308;28;19917;-77
2022/07/29 10:32:28;;;;;;;;;;;;;;;23.39;100.00;148598.47;5107734;28;20339;-78
2022/07/29 10:35:00;;;;;;;;;;;;;;;23.46;100.00;148615.16;5063139;28;19924;-78
2022/07/29 10:37:31;;;;;;;;;;;;;;;24.10;100.00;148774.41;5108636;28;19920;-79
2022/07/29 10:39:56;;;;;;;;;;;;;;;24.16;100.00;148789.81;5107717;28;19912;-79
2022/07/29 10:42:24;;;;;;;;;;;;;;;24.31;100.00;148828.34;5108417;28;20007;-80
2022/07/29 10:44:50;;;;;;;;;;;;;;;23.92;100.00;148730.75;5108353;28;19916;-80
2022/07/29 10:47:23;;;;;;;;;;;;;;;23.84;100.00;148710.22;5107744;28;19935;-76
2022/07/29 10:50:15;;;;;;;;;;;;;;;24.04;100.00;148760.31;5108270;28;19924;-79
2022/07/29 10:52:52;;;;;;;;;;;;;;;23.61;100.00;148653.66;5072885;28;19939;-79
2022/07/29 10:55:34;;;;;;;;;;;;;;;23.88;100.00;148720.50;5108205;28;19917;-79
2022/07/29 10:58:15;;;;;;;;;;;;;;;24.00;100.00;148751.34;5074611;28;20396;-78
2022/07/29 11:00:41;;;;;;;;;;;;;;;24.25;100.00;148811.66;5108048;28;19982;-79
2022/07/29 11:03:08;;;;;;;;;;;;;;;23.80;100.00;148699.88;5107398;28;19920;-79
2022/07/29 11:05:53;;;;;;;;;;;;;;;23.66;100.00;148666.53;5107851;28;19916;-80
2022/07/29 11:08:21;;;;;;;;;;;;;;;24.28;100.00;148819.38;5107058;28;20007;-78
2022/07/29 11:10:50;;;;;;;;;;;;;;;24.22;100.00;148805.22;5107886;28;19916;-79
2022/07/29 11:13:35;;;;;;;;;;;;;;;24.25;100.00;148812.94;5107956;28;19971;-79
2022/07/29 11:16:02;;;;;;;;;;;;;;;24.50;100.00;148874.59;5107311;28;20012;-79
2022/07/29 11:18:27;;;;;;;;;;;;;;;24.66;100.00;148915.78;5107317;28;19917;-79
2022/07/29 11:20:55;;;;;;;;;;;;;;;25.03;100.00;149008.28;5106692;28;20593;-77
2022/07/29 11:23:23;;;;;;;;;;;;;;;25.28;100.00;149069.97;5107091;28;19979;-79
2022/07/29 11:26:07;;;;;;;;;;;;;;;24.23;100.00;148806.53;5107957;28;19986;-79
2022/07/29 11:28:34;;;;;;;;;;;;;;;24.12;100.00;148779.56;5107641;28;20011;-77
2022/07/29 11:31:00;;;;;;;;;;;;;;;24.02;100.00;148756.44;5106492;28;19920;-79
2022/07/29 11:33:33;;;;;;;;;;;;;;;24.41;100.00;148851.47;5107432;28;19973;-80
2022/07/29 11:36:12;;;;;;;;;;;;;;;24.77;100.00;148941.50;5106696;28;20272;-77
2022/07/29 11:38:38;;;;;;;;;;;;;;;24.87;100.00;148967.16;5107243;28;19923;-81
2022/07/29 11:41:22;;;;;;;;;;;;;;;23.90;100.00;148724.38;5073302;28;19913;-78
2022/07/29 11:43:53;;;;;;;;;;;;;;;24.24;100.00;148809.09;5073809;28;20003;-80
2022/07/29 11:46:38;;;;;;;;;;;;;;;23.63;100.00;148658.81;5106872;28;19959;-80
2022/07/29 11:49:03;;;;;;;;;;;;;;;24.14;100.00;148784.69;5107007;28;19928;-80
2022/07/29 11:51:29;;;;;;;;;;;;;;;24.24;100.00;148809.09;5105383;28;19923;-79
2022/07/29 11:54:05;;;;;;;;;;;;;;;24.65;100.00;148911.91;5072322;28;20454;-79
2022/07/29 11:56:31;;;;;;;;;;;;;;;25.23;100.00;149057.09;5105398;28;19917;-77
2022/07/29 11:59:06;;;;;;;;;;;;;;;25.42;100.00;149106.00;5106085;28;20295;-76
2022/07/29 12:01:32;;;;;;;;;;;;;;;24.86;100.00;148965.88;5072836;28;20003;-75
2022/07/29 12:04:09;;;;;;;;;;;;;;;25.14;100.00;149033.97;5105520;28;20353;-77
2022/07/29 12:06:34;;;;;;;;;;;;;;;25.36;100.00;149089.31;5106564;28;19961;-77
2022/07/29 12:09:00;;;;;;;;;;;;;;;25.43;100.00;149107.28;5104785;28;19924;-76
2022/07/29 12:11:25;;;;;;;;;;;;;;;25.11;100.00;149026.25;5106581;28;19920;-77
2022/07/29 12:13:53;;;;;;;;;;;;;;;24.70;100.00;148926.06;5106344;28;19923;-76
2022/07/29 12:16:20;;;;;;;;;;;;;;;25.01;100.00;149003.13;5073180;28;20019;-77
2022/07/29 12:18:55;;;;;;;;;;;;;;;25.10;100.00;149024.97;5071829;28;19920;-77
2022/07/29 12:21:20;;;;;;;;;;;;;;;25.14;100.00;149035.28;5105766;28;19916;-76
2022/07/29 12:23:56;;;;;;;;;;;;;;;24.99;100.00;148998.00;5105193;28;20445;-78
2022/07/29 12:26:22;;;;;;;;;;;;;;;25.23;100.00;149057.09;5105752;28;19923;-79
2022/07/29 12:28:48;;;;;;;;;;;;;;;25.32;100.00;149079.00;5072737;28;19912;-77
2022/07/29 12:31:14;;;;;;;;;;;;;;;25.51;100.00;149126.56;5104637;28;19931;-77
2022/07/29 12:33:40;;;;;;;;;;;;;;;24.62;100.00;148905.47;5105644;28;19917;-79
2022/07/29 12:36:07;;;;;;;;;;;;;;;24.77;100.00;148941.50;5105705;28;19923;-78
2022/07/29 12:38:35;;;;;;;;;;;;;;;25.07;100.00;149018.53;5105853;28;19916;-78
2022/07/29 12:41:03;;;;;;;;;;;;;;;25.01;100.00;149001.84;5105923;28;20003;-77
2022/07/29 12:43:29;;;;;;;;;;;;;;;25.04;100.00;149009.56;5105626;28;19962;-78